• Join FlightAware (Why Join?)
  • Login
  • US Flag 
09:04PM EST


 

Airport Tracker/Info


-or-


 

Live Flight TrackerFlight Track Log ✈ N509QS ✈ 14-Jul-2013 ✈ KHPN - KPHL

Flight Track Log - Related Links

Times and Time Zones

All times are in EDT time to prevent confusion due to time zone crossing. See the N509QS flight status page for this flight to view local times or setup timezone preferences in your user account.

Time Position Orientation Groundspeed Altitude Reporting Facility
EDT Latitude Longitude Course Direction KTS MPH feet Rate Location/Type
06:55PM 41.1000 -73.7667 270° West 204 235 4,200  Level New York TRACON
06:56PM 41.1000 -73.8667 270° West 268 308 7,800 1,920 Climbing New York TRACON
06:57PM 41.1000 -73.9667 270° West 275 316 8,100 60 Climbing New York TRACON
06:58PM 41.0833 -74.0667 258° West 273 314 8,000 -60 Descending New York TRACON
06:59PM 41.0833 -74.1667 270° West 271 312 8,000  Level New York TRACON
07:00PM 41.0833 -74.2667 270° West 273 314 8,000  Level New York TRACON
07:01PM 41.0668 -74.4643 270° West  Level FlightAware Approximate
07:01PM 41.0833 -74.3500 270° West 269 310 8,000  Level New York TRACON
07:02PM 41.0667 -74.4500 258° West 270 311 8,000  Level New York TRACON
07:03PM 41.0500 -74.5500 258° West 280 322 8,000  Level New York TRACON
07:04PM 40.9667 -74.5833 197° South 288 331 8,000  Level New York TRACON
07:05PM 40.8833 -74.6167 197° South 286 329 8,000  Level New York TRACON
07:06PM 40.8167 -74.6500 201° Southwest 289 333 8,000  Level New York TRACON
07:07PM 40.7333 -74.6833 197° South 284 327 8,000  Level New York TRACON
07:08PM 40.6667 -74.7000 191° South 283 326 8,000 -600 Level New York TRACON
07:09PM 40.5833 -74.7333 197° South 278 320 6,900 -1,440 Descending New York TRACON
07:10PM 40.5333 -74.8000 225° Southwest 267 307 5,300 -780 Descending New York TRACON
07:12PM 40.4667 -74.9167 233° Southwest 262 302 5,000 -120 Descending Philadelphia TRACON
07:13PM 40.4000 -74.9667 210° Southwest 265 305 5,000 -60 Level Philadelphia TRACON
07:14PM 40.3333 -75.0000 201° Southwest 262 302 4,900  Descending Philadelphia TRACON
07:15PM 40.2500 -75.0500 205° Southwest 264 304 5,000  Climbing Philadelphia TRACON
07:16PM 40.2000 -75.0833 207° Southwest 214 246 5,000  Level Philadelphia TRACON
07:17PM 40.1667 -75.1500 237° Southwest 221 254 5,000  Level Philadelphia TRACON
07:18PM 40.1333 -75.2167 237° Southwest 217 250 5,000  Level Philadelphia TRACON
07:19PM 40.0667 -75.2167 180° South 228 262 5,000 -180 Level Philadelphia TRACON
07:20PM 40.0167 -75.1833 153° Southeast 206 237 4,700 -540 Descending Philadelphia TRACON
07:21PM 39.9667 -75.1667 166° South 207 238 4,000 -420 Descending Philadelphia TRACON
07:22PM 39.9167 -75.1333 153° Southeast 206 237 4,000  Level Philadelphia TRACON
07:23PM 39.8667 -75.1167 166° South 208 239 4,000  Level Philadelphia TRACON
07:24PM 39.8000 -75.0833 159° South 210 242 4,000  Level Philadelphia TRACON
07:25PM 39.7500 -75.0500 153° Southeast 207 238 4,000  Level Philadelphia TRACON
07:26PM 39.6833 -75.0333 169° South 210 242 4,000  Level Philadelphia TRACON
07:27PM 39.6500 -75.0667 218° Southwest 197 227 4,000 -60 Level Philadelphia TRACON
07:28PM 39.6333 -75.1333 252° West 199 229 3,900 -420 Descending Philadelphia TRACON
07:29PM 39.6833 -75.1500 346° North 200 230 3,200 -900 Descending Philadelphia TRACON
07:30PM 39.7333 -75.1667 346° North 184 212 2,300 -600 Descending Philadelphia TRACON
07:31PM 39.7667 -75.1500 21° North 160 184 2,000 -300 Descending Philadelphia TRACON
07:32PM 39.8000 -75.1833 322° Northwest 153 176 1,700 -720 Descending Philadelphia TRACON
07:33PM 39.8500 -75.2167 333° Northwest 138 159 600 -1,020 Descending Philadelphia TRACON
07:35PM 39.8667 -75.2333 329° Northwest  Level FlightAware Approximate
07:42PM 39.8722 -75.2409 329° Northwest  Level Estimated